Hdms Esbern Snare — OUFB — position and weather

sailwx.info

Track history (hours):
 
Tides and Currents Weather Stations Pressure Air Temp Water Temp Dewpoint Dewpoint Depression Visibility Wind Speed Wind Dir Waves Ship Positions

Hdms Esbern Snare

Last reported at 2018-Apr-19 14:01 UTC. Time now 2018-Apr-22 05:06 UTC.
Position N 55°58' W 004°51'.

Length 137 m.

Type: Military. MMSI: 36699999.

Date/timePositionNaut miles runAvg speedWind from/ knotsBaromVisibWave heightAir tempDewpointWater temp
2018-Apr-19 14:01N 55°58' W 004°51'110.8
2018-Apr-19 13:55N 55°57' W 004°52'4 9.9
2018-Apr-19 13:30N 55°54' W 004°55'713.2
2018-Apr-19 13:01N 55°47' W 004°58'712.6
2018-Apr-19 12:25N 55°41' W 005°04'2 5.2
2018-Apr-19 11:59N 55°43' W 005°06'33 8.3
2018-Apr-19 08:05N 55°12' W 005°25'613.2
2018-Apr-19 07:39N 55°11' W 005°34'4 9.6
2018-Apr-19 07:12N 55°08' W 005°39'411.3
2018-Apr-19 06:48N 55°10' W 005°45'3 8.8
2018-Apr-19 06:30N 55°12' W 005°48'5 7.2
2018-Apr-19 05:50N 55°14' W 005°56'3 9.4
2018-Apr-19 05:30N 55°16' W 005°59'5 9.3
2018-Apr-19 05:00N 55°20' W 006°05'510.3
2018-Apr-19 04:30N 55°22' W 006°13'714.2
2018-Apr-19 04:00N 55°24' W 006°25'612.7
2018-Apr-19 03:30N 55°29' W 006°32'713.6
2018-Apr-19 03:00N 55°34' W 006°39'815.1
2018-Apr-19 02:30N 55°40' W 006°48'611.8
2018-Apr-19 02:00N 55°44' W 006°56'714.7
2018-Apr-19 01:30N 55°50' W 007°02'209 9.0
2018-Apr-18 02:14N 58°44' W 003°27'310.8
2018-Apr-18 01:59N 58°43' W 003°22'613.3
2018-Apr-18 01:31N 58°43' W 003°09'815.9
2018-Apr-18 01:00N 58°39' W 002°56'610.9
2018-Apr-18 00:29N 58°34' W 002°50'610.8
2018-Apr-17 23:54N 58°31' W 002°40'41213.8
2018-Apr-16 18:05N 57°47' E 010°17'622.9
2018-Apr-16 17:50N 57°47' E 010°28'722.7
2018-Apr-16 17:31N 57°47' E 010°41'5 9.2
2018-Apr-16 17:01N 57°43' E 010°39'1 1.6
2018-Apr-16 16:10N 57°41' E 010°39'1 9.4
2018-Apr-16 16:01N 57°42' E 010°41'612.7
2018-Apr-16 15:30N 57°48' E 010°46'1 2.7
2018-Apr-16 15:00N 57°49' E 010°47'1 2.9
2018-Apr-16 14:30N 57°51' E 010°48'2 3.2
2018-Apr-16 14:00N 57°51' E 010°45'4 7.8
2018-Apr-16 13:30N 57°52' E 010°38'2 4.3
2018-Apr-16 13:00N 57°50' E 010°40'714.8
2018-Apr-16 12:30N 57°44' E 010°48'1020.2
2018-Apr-16 12:00N 57°34' E 010°47'816.2
2018-Apr-16 11:30N 57°27' E 010°42'5 9.2
2018-Apr-16 11:00N 57°26' E 010°33'1 0.3
2018-Apr-16 09:02N 57°26' E 010°32'0 0.0
2018-Apr-16 08:59N 57°26' E 010°32'0 0.0
2018-Apr-16 08:08N 57°26' E 010°32'0 0.0
2018-Apr-16 07:59N 57°26' E 010°32'0 0.0
2018-Apr-16 07:08N 57°26' E 010°32'0 0.0
2018-Apr-16 06:11N 57°26' E 010°32'0 0.0
2018-Apr-16 05:14N 57°26' E 010°32'0 0.0
2018-Apr-16 04:59N 57°26' E 010°32'0 0.0
2018-Apr-16 04:29N 57°26' E 010°32'0 0.0
2018-Apr-16 03:56N 57°26' E 010°32'0 0.0
2018-Apr-16 03:23N 57°26' E 010°32'0 0.0
2018-Apr-16 02:59N 57°26' E 010°32'0 0.0
2018-Apr-16 01:38N 57°26' E 010°32'0 0.0
2018-Apr-16 01:23N 57°26' E 010°32'0 0.0
2018-Apr-16 00:59N 57°26' E 010°32'0 0.0
2018-Apr-16 00:29N 57°26' E 010°32'0 0.0
2018-Apr-15 23:47N 57°26' E 010°32'0 0.0
2018-Apr-15 23:29N 57°26' E 010°32'0 0.0
2018-Apr-15 22:59N 57°26' E 010°32'0 0.0
2018-Apr-15 22:25N 57°26' E 010°32'0 0.0
2018-Apr-15 21:49N 57°26' E 010°32'0 0.0
2018-Apr-15 21:29N 57°26' E 010°32'0 0.0
2018-Apr-15 19:31N 57°26' E 010°32'0 0.0
2018-Apr-15 19:29N 57°26' E 010°32'0 0.0
2018-Apr-15 18:53N 57°26' E 010°32'0 0.0
2018-Apr-15 17:11N 57°26' E 010°32'0 0.0
2018-Apr-15 16:43N 57°26' E 010°32'0 0.0
2018-Apr-15 16:29N 57°26' E 010°32'0 0.0
2018-Apr-15 15:53N 57°26' E 010°32'0 0.0
2018-Apr-15 14:23N 57°26' E 010°32'0 0.0
2018-Apr-15 13:59N 57°26' E 010°32'0 0.0
2018-Apr-15 13:29N 57°26' E 010°32'0 0.0
2018-Apr-15 12:59N 57°26' E 010°32'0 0.0
2018-Apr-15 12:19N 57°26' E 010°32'0 0.0
2018-Apr-15 10:22N 57°26' E 010°32'0 0.0
2018-Apr-15 09:58N 57°26' E 010°32'0 0.0
2018-Apr-15 09:07N 57°26' E 010°32'0 0.0
2018-Apr-15 08:58N 57°26' E 010°32'0 0.0
2018-Apr-15 08:28N 57°26' E 010°32'0 0.0
2018-Apr-15 07:58N 57°26' E 010°32'0 0.0
2018-Apr-15 07:28N 57°26' E 010°32'0 0.0
2018-Apr-15 06:34N 57°26' E 010°32'0 0.0
2018-Apr-15 06:19N 57°26' E 010°32'0 0.0
2018-Apr-15 05:52N 57°26' E 010°32'0 0.0
2018-Apr-15 05:13N 57°26' E 010°32'0 0.0
2018-Apr-15 04:43N 57°26' E 010°32'0 0.0
2018-Apr-15 04:25N 57°26' E 010°32'0 0.0
2018-Apr-15 03:55N 57°26' E 010°32'0 0.0
2018-Apr-15 03:28N 57°26' E 010°32'0 0.0
2018-Apr-15 02:58N 57°26' E 010°32'0 0.0
2018-Apr-15 02:28N 57°26' E 010°32'0 0.0
2018-Apr-15 01:58N 57°26' E 010°32'0 0.0
2018-Apr-15 01:28N 57°26' E 010°32'0 0.0
2018-Apr-15 00:49N 57°26' E 010°32'0 0.0
2018-Apr-15 00:22N 57°26' E 010°32'0 0.0
2018-Apr-14 23:58N 57°26' E 010°32'0 0.0
2018-Apr-14 23:10N 57°26' E 010°32'0 0.0
2018-Apr-14 22:55N 57°26' E 010°32'0 0.0
2018-Apr-14 22:22N 57°26' E 010°32'0 0.0
2018-Apr-14 17:04N 57°26' E 010°32'0 0.0
2018-Apr-14 16:00N 57°26' E 010°32'0 0.0
2018-Apr-14 15:22N 57°26' E 010°32'0 0.0
2018-Apr-14 13:34N 57°26' E 010°32'0 0.0
2018-Apr-14 13:28N 57°26' E 010°32'0 0.0
2018-Apr-14 12:40N 57°26' E 010°32'0 0.0
2018-Apr-14 12:24N 57°26' E 010°32'0 0.0
2018-Apr-14 10:24N 57°26' E 010°32'0 0.0
2018-Apr-14 09:36N 57°26' E 010°32'0 0.0
2018-Apr-14 09:28N 57°26' E 010°32'0 0.0
2018-Apr-14 08:46N 57°26' E 010°32'0 0.0
2018-Apr-14 08:22N 57°26' E 010°32'0 0.0
2018-Apr-14 08:00N 57°26' E 010°32'0 0.0
2018-Apr-14 07:30N 57°26' E 010°32'0 0.0
2018-Apr-14 07:00N 57°26' E 010°32'0 0.0
2018-Apr-14 06:22N 57°26' E 010°32'0 0.0
2018-Apr-14 05:58N 57°26' E 010°32'0 0.0
2018-Apr-14 05:22N 57°26' E 010°32'0 0.0
2018-Apr-14 04:48N 57°26' E 010°32'0 0.0
2018-Apr-14 04:22N 57°26' E 010°32'0 0.0
2018-Apr-14 03:52N 57°26' E 010°32'0 0.0
2018-Apr-14 03:16N 57°26' E 010°32'0 0.0
2018-Apr-14 02:58N 57°26' E 010°32'0 0.0
2018-Apr-14 02:28N 57°26' E 010°32'0 0.0
2018-Apr-14 02:00N 57°26' E 010°32'0 0.0
2018-Apr-14 01:30N 57°26' E 010°32'0 0.0
2018-Apr-14 01:00N 57°26' E 010°32'0 0.0
2018-Apr-14 00:15N 57°26' E 010°32'0 0.0
2018-Apr-14 00:00N 57°26' E 010°32'0 0.0
2018-Apr-13 23:30N 57°26' E 010°32'0 0.0
2018-Apr-13 23:00N 57°26' E 010°32'0 0.0
2018-Apr-13 22:24N 57°26' E 010°32'0 0.0
2018-Apr-13 21:57N 57°26' E 010°32'0 0.0
2018-Apr-13 21:30N 57°26' E 010°32'0 0.0
2018-Apr-13 21:00N 57°26' E 010°32'0 0.0
2018-Apr-13 20:27N 57°26' E 010°32'0 0.0
2018-Apr-13 18:54N 57°26' E 010°32'0 0.0
2018-Apr-13 18:30N 57°26' E 010°32'0 0.0
2018-Apr-13 17:51N 57°26' E 010°32'0 0.0
2018-Apr-13 17:30N 57°26' E 010°32'0 0.0
2018-Apr-13 16:57N 57°26' E 010°32'0 0.0
2018-Apr-13 16:30N 57°26' E 010°32'0 0.0
2018-Apr-13 15:51N 57°26' E 010°32'0 0.0
2018-Apr-13 15:30N 57°26' E 010°32'0 0.0
2018-Apr-13 14:57N 57°26' E 010°32'0 0.0
2018-Apr-13 14:27N 57°26' E 010°32'0 0.0
2018-Apr-13 14:00N 57°26' E 010°32'0 0.0
2018-Apr-13 13:30N 57°26' E 010°32'0 0.0
2018-Apr-13 13:00N 57°26' E 010°32'0 0.0
2018-Apr-13 12:21N 57°26' E 010°32'0 0.0
2018-Apr-13 10:21N 57°26' E 010°32'0 0.0
2018-Apr-13 09:59N 57°26' E 010°32'0 0.0
2018-Apr-13 09:29N 57°26' E 010°32'0 0.0
2018-Apr-13 08:57N 57°26' E 010°32'0 0.0
2018-Apr-13 08:29N 57°26' E 010°32'0 0.0
2018-Apr-13 07:57N 57°26' E 010°32'0 0.0
2018-Apr-13 07:27N 57°26' E 010°32'0 0.0
2018-Apr-13 06:59N 57°26' E 010°32'0 0.0
2018-Apr-13 06:17N 57°26' E 010°32'0 0.0
2018-Apr-13 05:29N 57°26' E 010°32'0 0.0
2018-Apr-13 04:45N 57°26' E 010°32'0 0.0
2018-Apr-13 04:29N 57°26' E 010°32'0 0.0
2018-Apr-13 03:39N 57°26' E 010°32'0 0.0
2018-Apr-13 03:27N 57°26' E 010°32'0 0.0
2018-Apr-13 02:51N 57°26' E 010°32'0 0.0
2018-Apr-13 02:27N 57°26' E 010°32'0 0.0
2018-Apr-13 01:59N 57°26' E 010°32'0 0.0
2018-Apr-13 01:29N 57°26' E 010°32'0 0.0
2018-Apr-13 00:47N 57°26' E 010°32'0 0.0
2018-Apr-13 00:23N 57°26' E 010°32'0 0.0
2018-Apr-12 23:59N 57°26' E 010°32'0 0.0
2018-Apr-12 23:29N 57°26' E 010°32'0 0.0
2018-Apr-12 22:59N 57°26' E 010°32'0 0.0
2018-Apr-12 22:11N 57°26' E 010°32'0 0.0
2018-Apr-12 21:57N 57°26' E 010°32'0 0.0
2018-Apr-12 21:29N 57°26' E 010°32'0 0.0
2018-Apr-12 20:59N 57°26' E 010°32'0 0.0
2018-Apr-12 19:45N 57°26' E 010°32'0 0.0
2018-Apr-12 19:27N 57°26' E 010°32'0 0.0
2018-Apr-12 18:57N 57°26' E 010°32'0 0.0
2018-Apr-12 18:29N 57°26' E 010°32'0 0.0
2018-Apr-12 16:56N 57°26' E 010°32'0 0.0
2018-Apr-12 16:29N 57°26' E 010°32'0 0.0
2018-Apr-12 15:59N 57°26' E 010°32'0 0.0
2018-Apr-12 15:29N 57°26' E 010°32'0 0.0
2018-Apr-12 14:56N 57°26' E 010°32'0 0.0
2018-Apr-12 14:26N 57°26' E 010°32'0 0.0
2018-Apr-12 13:53N 57°26' E 010°32'0 0.0
2018-Apr-12 13:20N 57°26' E 010°32'0 0.0
2018-Apr-12 12:59N 57°26' E 010°32'0 0.0
2018-Apr-12 12:29N 57°26' E 010°32'0 0.0
2018-Apr-12 11:29N 57°26' E 010°32'0 0.0
2018-Apr-12 10:59N 57°26' E 010°32'0 0.0
2018-Apr-12 10:26N 57°26' E 010°32'0 0.0
2018-Apr-12 09:56N 57°26' E 010°32'0 0.0
2018-Apr-12 09:23N 57°26' E 010°32'0 0.0
2018-Apr-12 08:59N 57°26' E 010°32'0 0.0
2018-Apr-12 08:29N 57°26' E 010°32'0 0.0
2018-Apr-12 07:56N 57°26' E 010°32'0 0.0
2018-Apr-12 07:26N 57°26' E 010°32'0 0.0
2018-Apr-12 06:59N 57°26' E 010°32'0 0.0
2018-Apr-12 03:08N 57°26' E 010°32'0 0.0
2018-Apr-12 02:50N 57°26' E 010°32'0 0.0
2018-Apr-12 02:14N 57°26' E 010°32'0 0.0
2018-Apr-12 01:58N 57°26' E 010°32'0 0.0
2018-Apr-12 01:28N 57°26' E 010°32'0 0.0
2018-Apr-12 00:58N 57°26' E 010°32'0 0.0
2018-Apr-12 00:28N 57°26' E 010°32'0 0.0
2018-Apr-11 23:58N 57°26' E 010°32'0 0.0
2018-Apr-11 23:22N 57°26' E 010°32'0 0.0
2018-Apr-11 22:58N 57°26' E 010°32'0 0.0
2018-Apr-11 22:28N 57°26' E 010°32'0 0.0
2018-Apr-11 21:58N 57°26' E 010°32'0 0.0
2018-Apr-11 21:28N 57°26' E 010°32'0 0.0
2018-Apr-11 20:56N 57°26' E 010°32'0 0.0
2018-Apr-11 20:20N 57°26' E 010°32'0 0.0
2018-Apr-11 19:44N 57°26' E 010°32'0 0.0
2018-Apr-11 19:28N 57°26' E 010°32'0 0.0
2018-Apr-11 18:58N 57°26' E 010°32'0 0.0
2018-Apr-11 18:28N 57°26' E 010°32'0 0.0
2018-Apr-11 17:16N 57°26' E 010°32'0 0.0
2018-Apr-11 16:58N 57°26' E 010°32'0 0.0
2018-Apr-11 16:28N 57°26' E 010°32'0 0.0
2018-Apr-11 15:58N 57°26' E 010°32'0 0.0
2018-Apr-11 15:16N 57°26' E 010°32'0 0.0
2018-Apr-11 14:58N 57°26' E 010°32'0 0.0
2018-Apr-11 14:26N 57°26' E 010°32'0 0.0
2018-Apr-11 13:58N 57°26' E 010°32'0 0.0
2018-Apr-11 13:26N 57°26' E 010°32'0 0.0
2018-Apr-11 12:58N 57°26' E 010°32'0 0.0
2018-Apr-11 12:22N 57°26' E 010°32'0 0.0
2018-Apr-11 10:16N 57°26' E 010°32'0 0.0
2018-Apr-11 09:55N 57°26' E 010°32'0 0.0
2018-Apr-11 09:28N 57°26' E 010°32'0 0.0
2018-Apr-11 08:19N 57°26' E 010°32'0 0.0
2018-Apr-11 06:55N 57°26' E 010°32'0 0.0
2018-Apr-11 05:37N 57°26' E 010°32'0 0.0
2018-Apr-11 01:46N 57°26' E 010°32'0 0.0
2018-Apr-11 01:01N 57°26' E 010°32'0 0.0
2018-Apr-11 00:46N 57°26' E 010°32'0 0.0
2018-Apr-11 00:28N 57°26' E 010°32'0 0.0
2018-Apr-10 23:55N 57°26' E 010°32'0 0.0
2018-Apr-10 23:28N 57°26' E 010°32'0 0.0
2018-Apr-10 22:58N 57°26' E 010°32'0 0.0
2018-Apr-10 22:25N 57°26' E 010°32'0 0.0
2018-Apr-10 21:58N 57°26' E 010°32'0 0.0
2018-Apr-10 21:28N 57°26' E 010°32'0 0.0
2018-Apr-10 20:58N 57°26' E 010°32'0 0.0
2018-Apr-10 19:43N 57°26' E 010°32'0 0.0
2018-Apr-10 19:27N 57°26' E 010°32'0 0.0
2018-Apr-10 18:51N 57°26' E 010°32'0 0.0
2018-Apr-10 18:21N 57°26' E 010°32'0 0.0
2018-Apr-10 17:57N 57°26' E 010°32'0 0.0
2018-Apr-10 17:09N 57°26' E 010°32'0 0.0
2018-Apr-10 16:45N 57°26' E 010°32'0 0.0
2018-Apr-10 16:19N 57°26' E 010°32'0 0.0
2018-Apr-10 15:51N 57°26' E 010°32'0 0.0
2018-Apr-10 15:21N 57°26' E 010°32'0 0.0
2018-Apr-10 14:27N 57°26' E 010°32'0 0.0
2018-Apr-10 13:15N 57°26' E 010°32'0 0.0
2018-Apr-10 12:37N 57°26' E 010°32'0 0.0
2018-Apr-10 12:07N 57°26' E 010°32'0 0.0
2018-Apr-10 08:43N 57°26' E 010°32'0 0.0
2018-Apr-10 07:07N 57°26' E 010°32'0 0.0
2018-Apr-10 06:37N 57°26' E 010°32'0 0.0
2018-Apr-10 00:39N 57°26' E 010°32'0 0.0
2018-Apr-09 23:06N 57°26' E 010°32'0 0.0
2018-Apr-09 22:57N 57°26' E 010°32'0 0.0
2018-Apr-09 22:18N 57°26' E 010°32'0 0.0
2018-Apr-09 22:00N 57°26' E 010°32'0 0.0
2018-Apr-09 21:18N 57°26' E 010°32'0 0.0
2018-Apr-09 19:33N 57°26' E 010°32'0 0.0
2018-Apr-09 19:12N 57°26' E 010°32'0 0.0
2018-Apr-09 19:00N 57°26' E 010°32'0 0.0
2018-Apr-09 18:30N 57°26' E 010°32'0 0.0
2018-Apr-09 17:21N 57°26' E 010°32'0 0.0
2018-Apr-09 16:57N 57°26' E 010°32'0 0.0
2018-Apr-09 16:30N 57°26' E 010°32'0 0.0
2018-Apr-09 15:24N 57°26' E 010°32'0 0.0
2018-Apr-09 15:00N 57°26' E 010°32'0 0.0
2018-Apr-09 14:09N 57°26' E 010°32'  
Track history (hours):
 
Tides and Currents Weather Stations Pressure Air Temp Water Temp Dewpoint Dewpoint Depression Visibility Wind Speed Wind Dir Waves Ship Positions

Hdms Esbern Snare

Last reported at 2018-Apr-19 14:01 UTC. Time now 2018-Apr-22 05:06 UTC.
Position N 55°58' W 004°51'.

Length 137 m.

Type: Military. MMSI: 36699999.

Date/timePositionNaut miles runAvg speedWind from/ knotsBaromVisibWave heightAir tempDewpointWater temp
2018-Apr-19 14:01N 55°58' W 004°51'110.8
2018-Apr-19 13:55N 55°57' W 004°52'4 9.9
2018-Apr-19 13:30N 55°54' W 004°55'713.2
2018-Apr-19 13:01N 55°47' W 004°58'712.6
2018-Apr-19 12:25N 55°41' W 005°04'2 5.2
2018-Apr-19 11:59N 55°43' W 005°06'33 8.3
2018-Apr-19 08:05N 55°12' W 005°25'613.2
2018-Apr-19 07:39N 55°11' W 005°34'4 9.6
2018-Apr-19 07:12N 55°08' W 005°39'411.3
2018-Apr-19 06:48N 55°10' W 005°45'3 8.8
2018-Apr-19 06:30N 55°12' W 005°48'5 7.2
2018-Apr-19 05:50N 55°14' W 005°56'3 9.4
2018-Apr-19 05:30N 55°16' W 005°59'5 9.3
2018-Apr-19 05:00N 55°20' W 006°05'510.3
2018-Apr-19 04:30N 55°22' W 006°13'714.2
2018-Apr-19 04:00N 55°24' W 006°25'612.7
2018-Apr-19 03:30N 55°29' W 006°32'713.6
2018-Apr-19 03:00N 55°34' W 006°39'815.1
2018-Apr-19 02:30N 55°40' W 006°48'611.8
2018-Apr-19 02:00N 55°44' W 006°56'714.7
2018-Apr-19 01:30N 55°50' W 007°02'209 9.0
2018-Apr-18 02:14N 58°44' W 003°27'310.8
2018-Apr-18 01:59N 58°43' W 003°22'613.3
2018-Apr-18 01:31N 58°43' W 003°09'815.9
2018-Apr-18 01:00N 58°39' W 002°56'610.9
2018-Apr-18 00:29N 58°34' W 002°50'610.8
2018-Apr-17 23:54N 58°31' W 002°40'41213.8
2018-Apr-16 18:05N 57°47' E 010°17'622.9
2018-Apr-16 17:50N 57°47' E 010°28'722.7
2018-Apr-16 17:31N 57°47' E 010°41'5 9.2
2018-Apr-16 17:01N 57°43' E 010°39'1 1.6
2018-Apr-16 16:10N 57°41' E 010°39'1 9.4
2018-Apr-16 16:01N 57°42' E 010°41'612.7
2018-Apr-16 15:30N 57°48' E 010°46'1 2.7
2018-Apr-16 15:00N 57°49' E 010°47'1 2.9
2018-Apr-16 14:30N 57°51' E 010°48'2 3.2
2018-Apr-16 14:00N 57°51' E 010°45'4 7.8
2018-Apr-16 13:30N 57°52' E 010°38'2 4.3
2018-Apr-16 13:00N 57°50' E 010°40'714.8
2018-Apr-16 12:30N 57°44' E 010°48'1020.2
2018-Apr-16 12:00N 57°34' E 010°47'816.2
2018-Apr-16 11:30N 57°27' E 010°42'5 9.2
2018-Apr-16 11:00N 57°26' E 010°33'1 0.3
2018-Apr-16 09:02N 57°26' E 010°32'0 0.0
2018-Apr-16 08:59N 57°26' E 010°32'0 0.0
2018-Apr-16 08:08N 57°26' E 010°32'0 0.0
2018-Apr-16 07:59N 57°26' E 010°32'0 0.0
2018-Apr-16 07:08N 57°26' E 010°32'0 0.0
2018-Apr-16 06:11N 57°26' E 010°32'0 0.0
2018-Apr-16 05:14N 57°26' E 010°32'0 0.0
2018-Apr-16 04:59N 57°26' E 010°32'0 0.0
2018-Apr-16 04:29N 57°26' E 010°32'0 0.0
2018-Apr-16 03:56N 57°26' E 010°32'0 0.0
2018-Apr-16 03:23N 57°26' E 010°32'0 0.0
2018-Apr-16 02:59N 57°26' E 010°32'0 0.0
2018-Apr-16 01:38N 57°26' E 010°32'0 0.0
2018-Apr-16 01:23N 57°26' E 010°32'0 0.0
2018-Apr-16 00:59N 57°26' E 010°32'0 0.0
2018-Apr-16 00:29N 57°26' E 010°32'0 0.0
2018-Apr-15 23:47N 57°26' E 010°32'0 0.0
2018-Apr-15 23:29N 57°26' E 010°32'0 0.0
2018-Apr-15 22:59N 57°26' E 010°32'0 0.0
2018-Apr-15 22:25N 57°26' E 010°32'0 0.0
2018-Apr-15 21:49N 57°26' E 010°32'0 0.0
2018-Apr-15 21:29N 57°26' E 010°32'0 0.0
2018-Apr-15 19:31N 57°26' E 010°32'0 0.0
2018-Apr-15 19:29N 57°26' E 010°32'0 0.0
2018-Apr-15 18:53N 57°26' E 010°32'0 0.0
2018-Apr-15 17:11N 57°26' E 010°32'0 0.0
2018-Apr-15 16:43N 57°26' E 010°32'0 0.0
2018-Apr-15 16:29N 57°26' E 010°32'0 0.0
2018-Apr-15 15:53N 57°26' E 010°32'0 0.0
2018-Apr-15 14:23N 57°26' E 010°32'0 0.0
2018-Apr-15 13:59N 57°26' E 010°32'0 0.0
2018-Apr-15 13:29N 57°26' E 010°32'0 0.0
2018-Apr-15 12:59N 57°26' E 010°32'0 0.0
2018-Apr-15 12:19N 57°26' E 010°32'0 0.0
2018-Apr-15 10:22N 57°26' E 010°32'0 0.0
2018-Apr-15 09:58N 57°26' E 010°32'0 0.0
2018-Apr-15 09:07N 57°26' E 010°32'0 0.0
2018-Apr-15 08:58N 57°26' E 010°32'0 0.0
2018-Apr-15 08:28N 57°26' E 010°32'0 0.0
2018-Apr-15 07:58N 57°26' E 010°32'0 0.0
2018-Apr-15 07:28N 57°26' E 010°32'0 0.0
2018-Apr-15 06:34N 57°26' E 010°32'0 0.0
2018-Apr-15 06:19N 57°26' E 010°32'0 0.0
2018-Apr-15 05:52N 57°26' E 010°32'0 0.0
2018-Apr-15 05:13N 57°26' E 010°32'0 0.0
2018-Apr-15 04:43N 57°26' E 010°32'0 0.0
2018-Apr-15 04:25N 57°26' E 010°32'0 0.0
2018-Apr-15 03:55N 57°26' E 010°32'0 0.0
2018-Apr-15 03:28N 57°26' E 010°32'0 0.0
2018-Apr-15 02:58N 57°26' E 010°32'0 0.0
2018-Apr-15 02:28N 57°26' E 010°32'0 0.0
2018-Apr-15 01:58N 57°26' E 010°32'0 0.0
2018-Apr-15 01:28N 57°26' E 010°32'0 0.0
2018-Apr-15 00:49N 57°26' E 010°32'0 0.0
2018-Apr-15 00:22N 57°26' E 010°32'0 0.0
2018-Apr-14 23:58N 57°26' E 010°32'0 0.0
2018-Apr-14 23:10N 57°26' E 010°32'0 0.0
2018-Apr-14 22:55N 57°26' E 010°32'0 0.0
2018-Apr-14 22:22N 57°26' E 010°32'0 0.0
2018-Apr-14 17:04N 57°26' E 010°32'0 0.0
2018-Apr-14 16:00N 57°26' E 010°32'0 0.0
2018-Apr-14 15:22N 57°26' E 010°32'0 0.0
2018-Apr-14 13:34N 57°26' E 010°32'0 0.0
2018-Apr-14 13:28N 57°26' E 010°32'0 0.0
2018-Apr-14 12:40N 57°26' E 010°32'0 0.0
2018-Apr-14 12:24N 57°26' E 010°32'0 0.0
2018-Apr-14 10:24N 57°26' E 010°32'0 0.0
2018-Apr-14 09:36N 57°26' E 010°32'0 0.0
2018-Apr-14 09:28N 57°26' E 010°32'0 0.0
2018-Apr-14 08:46N 57°26' E 010°32'0 0.0
2018-Apr-14 08:22N 57°26' E 010°32'0 0.0
2018-Apr-14 08:00N 57°26' E 010°32'0 0.0
2018-Apr-14 07:30N 57°26' E 010°32'0 0.0
2018-Apr-14 07:00N 57°26' E 010°32'0 0.0
2018-Apr-14 06:22N 57°26' E 010°32'0 0.0
2018-Apr-14 05:58N 57°26' E 010°32'0 0.0
2018-Apr-14 05:22N 57°26' E 010°32'0 0.0
2018-Apr-14 04:48N 57°26' E 010°32'0 0.0
2018-Apr-14 04:22N 57°26' E 010°32'0 0.0
2018-Apr-14 03:52N 57°26' E 010°32'0 0.0
2018-Apr-14 03:16N 57°26' E 010°32'0 0.0
2018-Apr-14 02:58N 57°26' E 010°32'0 0.0
2018-Apr-14 02:28N 57°26' E 010°32'0 0.0
2018-Apr-14 02:00N 57°26' E 010°32'0 0.0
2018-Apr-14 01:30N 57°26' E 010°32'0 0.0
2018-Apr-14 01:00N 57°26' E 010°32'0 0.0
2018-Apr-14 00:15N 57°26' E 010°32'0 0.0
2018-Apr-14 00:00N 57°26' E 010°32'0 0.0
2018-Apr-13 23:30N 57°26' E 010°32'0 0.0
2018-Apr-13 23:00N 57°26' E 010°32'0 0.0
2018-Apr-13 22:24N 57°26' E 010°32'0 0.0
2018-Apr-13 21:57N 57°26' E 010°32'0 0.0
2018-Apr-13 21:30N 57°26' E 010°32'0 0.0
2018-Apr-13 21:00N 57°26' E 010°32'0 0.0
2018-Apr-13 20:27N 57°26' E 010°32'0 0.0
2018-Apr-13 18:54N 57°26' E 010°32'0 0.0
2018-Apr-13 18:30N 57°26' E 010°32'0 0.0
2018-Apr-13 17:51N 57°26' E 010°32'0 0.0
2018-Apr-13 17:30N 57°26' E 010°32'0 0.0
2018-Apr-13 16:57N 57°26' E 010°32'0 0.0
2018-Apr-13 16:30N 57°26' E 010°32'0 0.0
2018-Apr-13 15:51N 57°26' E 010°32'0 0.0
2018-Apr-13 15:30N 57°26' E 010°32'0 0.0
2018-Apr-13 14:57N 57°26' E 010°32'0 0.0
2018-Apr-13 14:27N 57°26' E 010°32'0 0.0
2018-Apr-13 14:00N 57°26' E 010°32'0 0.0
2018-Apr-13 13:30N 57°26' E 010°32'0 0.0
2018-Apr-13 13:00N 57°26' E 010°32'0 0.0
2018-Apr-13 12:21N 57°26' E 010°32'0 0.0
2018-Apr-13 10:21N 57°26' E 010°32'0 0.0
2018-Apr-13 09:59N 57°26' E 010°32'0 0.0
2018-Apr-13 09:29N 57°26' E 010°32'0 0.0
2018-Apr-13 08:57N 57°26' E 010°32'0 0.0
2018-Apr-13 08:29N 57°26' E 010°32'0 0.0
2018-Apr-13 07:57N 57°26' E 010°32'0 0.0
2018-Apr-13 07:27N 57°26' E 010°32'0 0.0
2018-Apr-13 06:59N 57°26' E 010°32'0 0.0
2018-Apr-13 06:17N 57°26' E 010°32'0 0.0
2018-Apr-13 05:29N 57°26' E 010°32'0 0.0
2018-Apr-13 04:45N 57°26' E 010°32'0 0.0
2018-Apr-13 04:29N 57°26' E 010°32'0 0.0
2018-Apr-13 03:39N 57°26' E 010°32'0 0.0
2018-Apr-13 03:27N 57°26' E 010°32'0 0.0
2018-Apr-13 02:51N 57°26' E 010°32'0 0.0
2018-Apr-13 02:27N 57°26' E 010°32'0 0.0
2018-Apr-13 01:59N 57°26' E 010°32'0 0.0
2018-Apr-13 01:29N 57°26' E 010°32'0 0.0
2018-Apr-13 00:47N 57°26' E 010°32'0 0.0
2018-Apr-13 00:23N 57°26' E 010°32'0 0.0
2018-Apr-12 23:59N 57°26' E 010°32'0 0.0
2018-Apr-12 23:29N 57°26' E 010°32'0 0.0
2018-Apr-12 22:59N 57°26' E 010°32'0 0.0
2018-Apr-12 22:11N 57°26' E 010°32'0 0.0
2018-Apr-12 21:57N 57°26' E 010°32'0 0.0
2018-Apr-12 21:29N 57°26' E 010°32'0 0.0
2018-Apr-12 20:59N 57°26' E 010°32'0 0.0
2018-Apr-12 19:45N 57°26' E 010°32'0 0.0
2018-Apr-12 19:27N 57°26' E 010°32'0 0.0
2018-Apr-12 18:57N 57°26' E 010°32'0 0.0
2018-Apr-12 18:29N 57°26' E 010°32'0 0.0
2018-Apr-12 16:56N 57°26' E 010°32'0 0.0
2018-Apr-12 16:29N 57°26' E 010°32'0 0.0
2018-Apr-12 15:59N 57°26' E 010°32'0 0.0
2018-Apr-12 15:29N 57°26' E 010°32'0 0.0
2018-Apr-12 14:56N 57°26' E 010°32'0 0.0
2018-Apr-12 14:26N 57°26' E 010°32'0 0.0
2018-Apr-12 13:53N 57°26' E 010°32'0 0.0
2018-Apr-12 13:20N 57°26' E 010°32'0 0.0
2018-Apr-12 12:59N 57°26' E 010°32'0 0.0
2018-Apr-12 12:29N 57°26' E 010°32'0 0.0
2018-Apr-12 11:29N 57°26' E 010°32'0 0.0
2018-Apr-12 10:59N 57°26' E 010°32'0 0.0
2018-Apr-12 10:26N 57°26' E 010°32'0 0.0
2018-Apr-12 09:56N 57°26' E 010°32'0 0.0
2018-Apr-12 09:23N 57°26' E 010°32'0 0.0
2018-Apr-12 08:59N 57°26' E 010°32'0 0.0
2018-Apr-12 08:29N 57°26' E 010°32'0 0.0
2018-Apr-12 07:56N 57°26' E 010°32'0 0.0
2018-Apr-12 07:26N 57°26' E 010°32'0 0.0
2018-Apr-12 06:59N 57°26' E 010°32'0 0.0
2018-Apr-12 03:08N 57°26' E 010°32'0 0.0
2018-Apr-12 02:50N 57°26' E 010°32'0 0.0
2018-Apr-12 02:14N 57°26' E 010°32'0 0.0
2018-Apr-12 01:58N 57°26' E 010°32'0 0.0
2018-Apr-12 01:28N 57°26' E 010°32'0 0.0
2018-Apr-12 00:58N 57°26' E 010°32'0 0.0
2018-Apr-12 00:28N 57°26' E 010°32'0 0.0
2018-Apr-11 23:58N 57°26' E 010°32'0 0.0
2018-Apr-11 23:22N 57°26' E 010°32'0 0.0
2018-Apr-11 22:58N 57°26' E 010°32'0 0.0
2018-Apr-11 22:28N 57°26' E 010°32'0 0.0
2018-Apr-11 21:58N 57°26' E 010°32'0 0.0
2018-Apr-11 21:28N 57°26' E 010°32'0 0.0
2018-Apr-11 20:56N 57°26' E 010°32'0 0.0
2018-Apr-11 20:20N 57°26' E 010°32'0 0.0
2018-Apr-11 19:44N 57°26' E 010°32'0 0.0
2018-Apr-11 19:28N 57°26' E 010°32'0 0.0
2018-Apr-11 18:58N 57°26' E 010°32'0 0.0
2018-Apr-11 18:28N 57°26' E 010°32'0 0.0
2018-Apr-11 17:16N 57°26' E 010°32'0 0.0
2018-Apr-11 16:58N 57°26' E 010°32'0 0.0
2018-Apr-11 16:28N 57°26' E 010°32'0 0.0
2018-Apr-11 15:58N 57°26' E 010°32'0 0.0
2018-Apr-11 15:16N 57°26' E 010°32'0 0.0
2018-Apr-11 14:58N 57°26' E 010°32'0 0.0
2018-Apr-11 14:26N 57°26' E 010°32'0 0.0
2018-Apr-11 13:58N 57°26' E 010°32'0 0.0
2018-Apr-11 13:26N 57°26' E 010°32'0 0.0
2018-Apr-11 12:58N 57°26' E 010°32'0 0.0
2018-Apr-11 12:22N 57°26' E 010°32'0 0.0
2018-Apr-11 10:16N 57°26' E 010°32'0 0.0
2018-Apr-11 09:55N 57°26' E 010°32'0 0.0
2018-Apr-11 09:28N 57°26' E 010°32'0 0.0
2018-Apr-11 08:19N 57°26' E 010°32'0 0.0
2018-Apr-11 06:55N 57°26' E 010°32'0 0.0
2018-Apr-11 05:37N 57°26' E 010°32'0 0.0
2018-Apr-11 01:46N 57°26' E 010°32'0 0.0
2018-Apr-11 01:01N 57°26' E 010°32'0 0.0
2018-Apr-11 00:46N 57°26' E 010°32'0 0.0
2018-Apr-11 00:28N 57°26' E 010°32'0 0.0
2018-Apr-10 23:55N 57°26' E 010°32'0 0.0
2018-Apr-10 23:28N 57°26' E 010°32'0 0.0
2018-Apr-10 22:58N 57°26' E 010°32'0 0.0
2018-Apr-10 22:25N 57°26' E 010°32'0 0.0
2018-Apr-10 21:58N 57°26' E 010°32'0 0.0
2018-Apr-10 21:28N 57°26' E 010°32'0 0.0
2018-Apr-10 20:58N 57°26' E 010°32'0 0.0
2018-Apr-10 19:43N 57°26' E 010°32'0 0.0
2018-Apr-10 19:27N 57°26' E 010°32'0 0.0
2018-Apr-10 18:51N 57°26' E 010°32'0 0.0
2018-Apr-10 18:21N 57°26' E 010°32'0 0.0
2018-Apr-10 17:57N 57°26' E 010°32'0 0.0
2018-Apr-10 17:09N 57°26' E 010°32'0 0.0
2018-Apr-10 16:45N 57°26' E 010°32'0 0.0
2018-Apr-10 16:19N 57°26' E 010°32'0 0.0
2018-Apr-10 15:51N 57°26' E 010°32'0 0.0
2018-Apr-10 15:21N 57°26' E 010°32'0 0.0
2018-Apr-10 14:27N 57°26' E 010°32'0 0.0
2018-Apr-10 13:15N 57°26' E 010°32'0 0.0
2018-Apr-10 12:37N 57°26' E 010°32'0 0.0
2018-Apr-10 12:07N 57°26' E 010°32'0 0.0
2018-Apr-10 08:43N 57°26' E 010°32'0 0.0
2018-Apr-10 07:07N 57°26' E 010°32'0 0.0
2018-Apr-10 06:37N 57°26' E 010°32'0 0.0
2018-Apr-10 00:39N 57°26' E 010°32'0 0.0
2018-Apr-09 23:06N 57°26' E 010°32'0 0.0
2018-Apr-09 22:57N 57°26' E 010°32'0 0.0
2018-Apr-09 22:18N 57°26' E 010°32'0 0.0
2018-Apr-09 22:00N 57°26' E 010°32'0 0.0
2018-Apr-09 21:18N 57°26' E 010°32'0 0.0
2018-Apr-09 19:33N 57°26' E 010°32'0 0.0
2018-Apr-09 19:12N 57°26' E 010°32'0 0.0
2018-Apr-09 19:00N 57°26' E 010°32'0 0.0
2018-Apr-09 18:30N 57°26' E 010°32'0 0.0
2018-Apr-09 17:21N 57°26' E 010°32'0 0.0
2018-Apr-09 16:57N 57°26' E 010°32'0 0.0
2018-Apr-09 16:30N 57°26' E 010°32'0 0.0
2018-Apr-09 15:24N 57°26' E 010°32'0 0.0
2018-Apr-09 15:00N 57°26' E 010°32'0 0.0
2018-Apr-09 14:09N 57°26' E 010°32'  

Dump ship's entire track history